Time;durP1;ratioP1;P1;durP2;ratioP2;P2;SDS_P1;SDS_P2;PMS_P1;PMS_P2;Temp;Humidity;BMP_temperature;BMP_pressure;BME280_temperature;BME280_humidity;BME280_pressure;Samples;Min_cycle;Max_cycle;Signal;HPM_P1;HPM_P2
2022/01/28 00:00:00;;;;;;;10.00;2.75;;;;;;;4.34;73.90;99816.41;2169079;81;29334;-62
2022/01/28 00:03:04;;;;;;;7.75;2.27;;;;;;;4.28;73.99;99814.41;2168849;81;27676;-62
2022/01/28 00:06:04;;;;;;;10.53;2.52;;;;;;;4.23;74.15;99813.24;2169403;81;29914;-65
2022/01/28 00:09:06;;;;;;;7.75;2.37;;;;;;;4.21;74.29;99808.44;2168871;82;31001;-65
2022/01/28 00:12:10;;;;;;;7.40;2.70;;;;;;;4.18;74.47;99816.05;2170404;82;33426;-62
2022/01/28 00:15:22;;;;;;;8.73;2.60;;;;;;;4.18;74.55;99813.39;2144446;82;30293;-62
2022/01/28 00:38:08;;;;;;;10.13;1.98;;;;;;;4.08;75.41;99810.59;2106246;84;28580;-62
2022/01/28 00:41:07;;;;;;;8.23;1.87;;;;;;;3.99;75.16;99795.84;2106244;84;31036;-62
2022/01/28 00:44:09;;;;;;;10.60;2.58;;;;;;;3.89;75.24;99834.15;2100209;84;34080;-62
2022/01/28 00:47:10;;;;;;;11.55;2.33;;;;;;;3.81;75.46;99819.80;2144287;82;29720;-62
2022/01/28 00:50:12;;;;;;;7.22;2.30;;;;;;;3.71;75.52;99803.31;2136397;83;27671;-62
2022/01/28 00:53:14;;;;;;;9.85;2.33;;;;;;;3.63;75.64;99814.60;2128632;83;29830;-62
2022/01/28 00:56:16;;;;;;;7.33;2.35;;;;;;;3.56;75.58;99811.23;2132288;83;32254;-62
2022/01/28 00:59:18;;;;;;;8.00;2.58;;;;;;;3.47;75.66;99800.48;2125942;83;32946;-61
2022/01/28 01:02:20;;;;;;;7.37;2.05;;;;;;;3.39;75.63;99802.93;2137419;83;29949;-62
2022/01/28 01:05:23;;;;;;;8.05;2.30;;;;;;;3.31;75.62;99797.84;2127250;83;27573;-62
2022/01/28 01:08:24;;;;;;;6.62;2.58;;;;;;;3.23;75.67;99817.03;2113445;83;29990;-62
2022/01/28 01:11:28;;;;;;;6.03;1.80;;;;;;;3.16;75.74;99815.86;2121121;83;31666;-62
2022/01/28 01:14:31;;;;;;;8.40;2.20;;;;;;;3.14;75.79;99803.59;2131915;83;33949;-62
2022/01/28 01:17:41;;;;;;;7.92;2.00;;;;;;;3.10;75.68;99807.22;2103935;83;29769;-61
2022/01/28 01:20:56;;;;;;;11.08;2.62;;;;;;;3.07;75.61;99819.20;2126132;83;27661;-62
2022/01/28 01:23:50;;;;;;;9.45;2.45;;;;;;;3.04;75.61;99826.34;2112334;83;29067;-61
2022/01/28 01:26:46;;;;;;;11.45;2.17;;;;;;;3.04;75.52;99814.44;2112060;83;31458;-61
2022/01/28 01:29:48;;;;;;;7.70;2.12;;;;;;;3.02;75.66;99812.28;2126073;83;32771;-61
2022/01/28 01:32:50;;;;;;;8.03;1.98;;;;;;;3.04;75.77;99810.91;2127350;83;30237;-61
2022/01/28 01:35:53;;;;;;;8.28;2.00;;;;;;;3.07;75.76;99808.63;2127895;83;27618;-61
2022/01/28 01:38:54;;;;;;;14.33;2.80;;;;;;;3.09;75.78;99811.66;2124094;83;30123;-62
2022/01/28 01:42:04;;;;;;;7.05;1.45;;;;;;;3.13;75.75;99809.79;2128626;81;30427;-62
2022/01/28 01:54:55;;;;;;;8.25;2.20;;;;;;;3.26;75.80;99803.25;2108030;84;28720;-61
2022/01/28 01:57:57;;;;;;;12.33;1.80;;;;;;;3.30;75.78;99801.41;2108154;84;31689;-61
2022/01/28 02:01:00;;;;;;;9.38;2.95;;;;;;;3.32;75.71;99789.85;2127962;83;33014;-62
2022/01/28 02:04:03;;;;;;;10.23;2.12;;;;;;;3.37;75.70;99786.22;2170514;81;29335;-61
2022/01/28 02:07:06;;;;;;;15.43;2.45;;;;;;;3.39;75.53;99777.78;2170452;81;27672;-61
2022/01/28 02:10:08;;;;;;;7.53;2.00;;;;;;;3.43;75.36;99793.96;2166057;82;28784;-61
2022/01/28 02:13:10;;;;;;;11.12;2.12;;;;;;;3.48;75.19;99798.69;2099898;84;31852;-62
2022/01/28 02:16:12;;;;;;;6.40;1.65;;;;;;;3.54;74.93;99797.63;2108162;84;33825;-61
2022/01/28 02:19:14;;;;;;;6.80;2.08;;;;;;;3.59;74.70;99788.64;2107145;83;29272;-62
2022/01/28 02:22:19;;;;;;;11.30;2.22;;;;;;;3.66;74.71;99797.27;2107840;84;27735;-62
2022/01/28 02:25:30;;;;;;;10.90;2.20;;;;;;;3.72;74.68;99806.84;2124753;83;28535;-62
2022/01/28 02:28:36;;;;;;;8.88;1.87;;;;;;;3.75;74.56;99782.45;2107621;84;31015;-62
2022/01/28 02:31:36;;;;;;;10.85;1.90;;;;;;;3.78;74.42;99791.63;2107311;84;33788;-62
2022/01/28 02:34:40;;;;;;;7.45;1.57;;;;;;;3.78;74.52;99798.25;2106114;84;29609;-62
2022/01/28 02:37:42;;;;;;;11.88;1.67;;;;;;;3.80;74.35;99799.52;2106387;84;27624;-62
2022/01/28 02:40:51;;;;;;;15.35;2.42;;;;;;;3.80;74.54;99798.20;2106548;84;29143;-62
2022/01/28 02:47:03;;;;;;;5.97;1.60;;;;;;;3.80;74.64;99800.84;2144730;83;33405;-62
2022/01/28 02:50:03;;;;;;;10.98;2.17;;;;;;;3.79;74.81;99813.67;2143571;82;30797;-62
2022/01/28 02:53:09;;;;;;;8.67;2.00;;;;;;;3.76;74.88;99796.10;2128185;83;27702;-62
2022/01/28 02:56:15;;;;;;;10.85;2.30;;;;;;;3.73;75.12;99806.78;2128515;83;28792;-62
2022/01/28 02:59:14;;;;;;;7.72;1.90;;;;;;;3.71;75.13;99815.23;2143121;83;31026;-62
2022/01/28 03:02:16;;;;;;;7.78;1.85;;;;;;;3.69;75.31;99817.05;2144600;83;34265;-61
2022/01/28 03:05:30;;;;;;;8.75;1.57;;;;;;;3.68;75.44;99825.91;2142118;83;30473;-61
2022/01/28 03:08:28;;;;;;;7.72;1.90;;;;;;;3.64;75.61;99824.28;2126258;83;27688;-61
2022/01/28 03:11:42;;;;;;;11.15;2.83;;;;;;;3.62;75.67;99823.45;2128553;83;30031;-61
2022/01/28 03:14:47;;;;;;;8.07;1.60;;;;;;;3.60;75.84;99830.58;2125901;83;31943;-62
2022/01/28 03:17:52;;;;;;;7.92;1.70;;;;;;;3.55;75.92;99829.39;2125776;83;34132;-61
2022/01/28 03:20:54;;;;;;;10.50;2.22;;;;;;;3.49;75.96;99833.05;2113234;83;29365;-62
2022/01/28 03:23:44;;;;;;;11.08;2.15;;;;;;;3.46;76.14;99834.92;2100656;84;27794;-61
2022/01/28 03:26:50;;;;;;;10.70;2.12;;;;;;;3.41;76.36;99845.66;2143264;83;29118;-61
2022/01/28 03:29:51;;;;;;;10.72;1.80;;;;;;;3.38;76.32;99849.70;2144880;82;32367;-62
2022/01/28 03:32:53;;;;;;;8.58;2.10;;;;;;;3.36;76.39;99844.05;2098796;84;33564;-61
2022/01/28 03:35:55;;;;;;;8.75;1.72;;;;;;;3.33;76.53;99848.95;2144567;82;29711;-61
2022/01/28 03:38:58;;;;;;;6.60;1.85;;;;;;;3.32;76.64;99852.06;2141788;83;27691;-61
2022/01/28 03:41:59;;;;;;;13.85;2.37;;;;;;;3.31;76.67;99859.59;2127153;83;29935;-61
2022/01/28 03:45:05;;;;;;;11.45;2.42;;;;;;;3.30;76.73;99848.59;2168495;81;32382;-62
2022/01/28 03:48:07;;;;;;;9.68;1.77;;;;;;;3.31;76.80;99870.66;2172493;81;33001;-61
2022/01/28 03:51:09;;;;;;;8.33;2.02;;;;;;;3.32;76.81;99862.66;2168510;81;29774;-61
2022/01/28 03:54:11;;;;;;;11.93;2.02;;;;;;;3.34;76.77;99868.78;2146618;82;27604;-62
2022/01/28 03:57:13;;;;;;;12.10;2.60;;;;;;;3.37;76.77;99876.23;2139086;82;29288;-62
2022/01/28 04:00:16;;;;;;;12.33;2.52;;;;;;;3.38;76.73;99878.83;2164869;81;31484;-62
2022/01/28 04:12:59;;;;;;;9.45;2.15;;;;;;;3.46;76.58;99890.53;2099339;84;29085;-62
2022/01/28 04:19:07;;;;;;;10.00;2.00;;;;;;;3.47;76.32;99885.22;2099235;84;34328;-61
2022/01/28 04:22:09;;;;;;;13.65;2.85;;;;;;;3.46;76.27;99886.56;2098880;84;29763;-61
2022/01/28 04:25:11;;;;;;;11.08;2.45;;;;;;;3.43;76.09;99885.31;2099507;84;27786;-62
2022/01/28 04:28:22;;;;;;;12.88;2.60;;;;;;;3.40;76.15;99887.60;2100975;84;28493;-62
2022/01/28 04:31:24;;;;;;;12.90;2.90;;;;;;;3.36;76.10;99893.87;2100502;84;31079;-62
2022/01/28 04:34:26;;;;;;;17.40;3.58;;;;;;;3.33;76.19;99904.11;2099700;84;33900;-61
2022/01/28 04:37:41;;;;;;;13.58;2.42;;;;;;;3.31;76.15;99887.86;2098263;84;29718;-62
2022/01/28 04:40:43;;;;;;;14.47;2.37;;;;;;;3.30;76.16;99902.86;2098775;84;27672;-61
2022/01/28 04:43:48;;;;;;;9.77;2.60;;;;;;;3.32;76.17;99907.66;2090351;84;29961;-61
2022/01/28 04:46:54;;;;;;;15.28;2.80;;;;;;;3.34;76.15;99916.44;2045745;85;31504;-62
2022/01/28 04:59:45;;;;;;;15.65;3.12;;;;;;;3.37;75.87;99930.05;2014122;87;29069;-62
2022/01/28 05:03:06;;;;;;;12.13;2.92;;;;;;;3.39;75.95;99922.94;2038402;85;32129;-61
2022/01/28 05:28:25;;;;;;;11.00;2.95;;;;;;;3.57;75.25;99961.77;2026601;87;27701;-61
2022/01/28 05:31:29;;;;;;;14.35;2.58;;;;;;;3.58;75.10;99967.00;2071860;85;30157;-62
2022/01/28 05:34:31;;;;;;;10.18;2.65;;;;;;;3.59;75.05;99973.19;2071855;85;30457;-62
2022/01/28 05:37:33;;;;;;;12.75;3.00;;;;;;;3.60;75.16;99980.22;2114607;83;34311;-62
2022/01/28 05:40:36;;;;;;;10.28;2.85;;;;;;;3.61;75.13;99984.61;2127348;83;30553;-62
2022/01/28 05:43:38;;;;;;;9.88;1.90;;;;;;;3.63;74.88;99993.39;2140461;82;27652;-62
2022/01/28 05:46:39;;;;;;;11.30;2.50;;;;;;;3.64;74.94;99991.16;2170128;82;29553;-62
2022/01/28 05:49:42;;;;;;;12.28;2.92;;;;;;;3.66;74.89;99987.99;2168723;82;31015;-62
2022/01/28 05:52:44;;;;;;;13.72;2.52;;;;;;;3.67;74.89;99991.53;2170138;82;33785;-62
2022/01/28 05:55:46;;;;;;;12.35;2.17;;;;;;;3.67;74.94;100014.05;2168871;82;29364;-62
2022/01/28 05:58:47;;;;;;;18.00;3.27;;;;;;;3.69;74.84;100016.20;2170407;81;27716;-62
2022/01/28 06:01:49;;;;;;;11.35;2.70;;;;;;;3.71;74.63;100018.36;2170161;81;28642;-62
2022/01/28 06:04:51;;;;;;;9.63;2.33;;;;;;;3.69;74.67;100021.03;2169671;82;31075;-61
2022/01/28 06:07:53;;;;;;;17.02;3.02;;;;;;;3.70;74.61;100031.19;2168913;82;33102;-61
2022/01/28 06:10:54;;;;;;;16.82;3.20;;;;;;;3.71;74.65;100047.03;2170050;82;30541;-61
2022/01/28 06:13:56;;;;;;;13.68;2.40;;;;;;;3.71;74.62;100036.44;2167251;82;27664;-62
2022/01/28 06:16:59;;;;;;;10.63;3.35;;;;;;;3.72;74.46;100046.12;2170039;82;30165;-62
2022/01/28 06:20:03;;;;;;;13.45;3.27;;;;;;;3.72;74.38;100060.70;2170474;82;31030;-61
2022/01/28 06:23:05;;;;;;;12.77;3.13;;;;;;;3.74;74.20;100042.10;2168964;81;34082;-62
2022/01/28 06:26:07;;;;;;;21.00;3.52;;;;;;;3.75;74.35;100055.33;2170331;82;29682;-61
2022/01/28 06:29:12;;;;;;;12.03;2.92;;;;;;;3.76;74.23;100053.53;2169161;81;27982;-62
2022/01/28 06:32:16;;;;;;;10.82;2.87;;;;;;;3.77;74.08;100053.95;2169438;82;28832;-62
2022/01/28 06:35:18;;;;;;;16.62;3.55;;;;;;;3.76;73.96;100054.86;2143470;83;31168;-62
2022/01/28 06:38:20;;;;;;;16.52;2.47;;;;;;;3.78;73.85;100060.99;2144079;83;33871;-62
2022/01/28 06:41:22;;;;;;;12.28;3.22;;;;;;;3.78;73.86;100062.31;2152806;82;30560;-63
2022/01/28 06:44:25;;;;;;;17.95;3.17;;;;;;;3.77;73.89;100064.11;2139424;83;27744;-62
2022/01/28 06:47:27;;;;;;;14.60;4.30;;;;;;;3.77;73.55;100064.11;2136627;83;30283;-62
2022/01/28 06:50:30;;;;;;;14.50;3.08;;;;;;;3.79;73.80;100073.33;2136426;83;28842;-62
2022/01/28 06:53:35;;;;;;;13.78;3.30;;;;;;;3.80;73.68;100079.94;2136555;83;34021;-63
2022/01/28 06:56:37;;;;;;;16.55;2.45;;;;;;;3.81;73.58;100094.04;2138757;83;29349;-62
2022/01/28 06:59:41;;;;;;;12.70;2.77;;;;;;;3.83;73.61;100099.29;2138821;83;27685;-62
2022/01/28 07:02:44;;;;;;;10.90;2.65;;;;;;;3.84;73.47;100092.64;2138699;83;29078;-62
2022/01/28 07:05:46;;;;;;;13.32;2.12;;;;;;;3.86;73.40;100096.56;2138703;83;31086;-64
2022/01/28 07:08:48;;;;;;;11.97;2.30;;;;;;;3.90;73.36;100095.59;2137175;83;33164;-61
2022/01/28 07:11:50;;;;;;;9.05;2.42;;;;;;;3.90;73.24;100113.67;2139309;82;29321;-61
2022/01/28 07:14:53;;;;;;;12.65;3.55;;;;;;;3.91;73.25;100114.09;2137432;83;27822;-61
2022/01/28 07:18:01;;;;;;;12.35;3.02;;;;;;;3.94;73.36;100115.34;2136980;83;30021;-61
2022/01/28 07:21:03;;;;;;;15.95;4.53;;;;;;;3.95;73.20;100115.76;2138837;83;31071;-61
2022/01/28 07:24:06;;;;;;;16.15;3.55;;;;;;;3.98;73.14;100121.42;2145081;82;34193;-60
2022/01/28 07:27:09;;;;;;;9.63;2.83;;;;;;;3.99;73.13;100120.52;2138806;82;29390;-62
2022/01/28 07:30:13;;;;;;;10.98;2.72;;;;;;;4.01;72.84;100129.30;2138697;83;28293;-62
2022/01/28 07:33:15;;;;;;;23.07;4.13;;;;;;;4.02;72.90;100119.59;2148654;82;29594;-62
2022/01/28 07:36:18;;;;;;;16.70;3.20;;;;;;;3.86;73.15;100101.43;2137653;82;31448;-63
2022/01/28 07:39:20;;;;;;;13.70;3.20;;;;;;;4.04;73.08;100147.79;2147883;81;32404;-61
2022/01/28 07:42:23;;;;;;;15.45;3.70;;;;;;;4.05;72.97;100152.66;2136329;82;29422;-62
2022/01/28 07:45:25;;;;;;;22.73;3.52;;;;;;;4.05;73.01;100146.03;2169796;81;27864;-62
2022/01/28 07:48:27;;;;;;;16.10;3.17;;;;;;;4.08;73.00;100157.85;2167174;82;28715;-62
2022/01/28 07:51:29;;;;;;;16.42;3.60;;;;;;;4.10;73.01;100162.23;2170516;81;32074;-64
2022/01/28 07:54:31;;;;;;;16.00;3.42;;;;;;;4.12;72.78;100174.11;2169457;81;32213;-63
2022/01/28 07:57:34;;;;;;;16.90;3.20;;;;;;;4.14;72.90;100164.80;2169345;82;29346;-61
2022/01/28 08:00:37;;;;;;;19.23;3.02;;;;;;;4.14;72.71;100174.09;2169418;81;27802;-61
2022/01/28 08:03:39;;;;;;;20.65;4.10;;;;;;;4.16;72.63;100185.50;2167717;81;29472;-62
2022/01/28 08:06:41;;;;;;;18.60;4.80;;;;;;;4.17;72.58;100202.71;2070079;84;31087;-63
2022/01/28 08:09:48;;;;;;;14.35;3.47;;;;;;;4.21;72.66;100197.75;2091583;84;33300;-62
2022/01/28 08:12:53;;;;;;;22.70;3.65;;;;;;;4.23;72.73;100185.30;2086904;85;29444;-63
2022/01/28 08:15:58;;;;;;;19.73;3.22;;;;;;;4.23;72.49;100205.19;2087779;85;27688;-65
2022/01/28 08:18:59;;;;;;;10.88;3.12;;;;;;;4.25;72.45;100217.95;2086787;85;29610;-61
2022/01/28 08:22:01;;;;;;;17.32;3.42;;;;;;;4.27;72.68;100217.94;2087964;85;31593;-61
2022/01/28 08:25:04;;;;;;;16.85;3.90;;;;;;;4.28;72.64;100232.94;2087371;85;33831;-61
2022/01/28 08:28:07;;;;;;;22.98;4.12;;;;;;;4.28;72.89;100242.22;2072989;85;29367;-61
2022/01/28 08:31:10;;;;;;;19.27;3.67;;;;;;;4.29;73.01;100229.38;2066618;85;27745;-62
2022/01/28 08:34:12;;;;;;;18.90;3.42;;;;;;;4.30;73.08;100249.69;2067067;85;29915;-62
2022/01/28 08:37:14;;;;;;;16.85;4.80;;;;;;;4.29;73.07;100245.29;2102684;84;31117;-63
2022/01/28 08:40:17;;;;;;;25.57;6.47;;;;;;;4.32;73.01;100258.92;2105377;84;33001;-63
2022/01/28 08:43:19;;;;;;;22.90;5.80;;;;;;;4.34;72.98;100259.76;2131864;82;29322;-62
2022/01/28 08:46:21;;;;;;;20.55;5.05;;;;;;;4.37;73.13;100264.99;2085335;84;27720;-61
2022/01/28 08:49:24;;;;;;;17.57;4.95;;;;;;;4.40;72.90;100278.16;2112878;83;28690;-63
2022/01/28 08:52:26;;;;;;;15.05;4.95;;;;;;;4.45;72.86;100283.37;2121308;83;31851;-62
2022/01/28 08:55:28;;;;;;;19.92;4.28;;;;;;;4.54;73.11;100285.78;2109404;83;34231;-62
2022/01/28 08:58:36;;;;;;;19.90;4.05;;;;;;;4.61;72.81;100283.84;2122360;82;30072;-63
2022/01/28 09:01:38;;;;;;;17.73;4.17;;;;;;;4.65;72.93;100295.66;2124751;83;27679;-63
2022/01/28 09:04:41;;;;;;;20.72;4.65;;;;;;;4.69;72.90;100303.97;2122069;83;28695;-62
2022/01/28 09:07:43;;;;;;;17.85;3.83;;;;;;;4.68;72.59;100311.51;2122779;83;31039;-62
2022/01/28 09:11:07;;;;;;;13.58;3.65;;;;;;;4.63;72.57;100320.06;2121776;83;32320;-64
2022/01/28 09:14:05;;;;;;;18.92;4.20;;;;;;;4.60;72.37;100330.74;2122782;83;29335;-63
2022/01/28 09:17:21;;;;;;;14.70;3.93;;;;;;;4.56;72.71;100341.00;2121172;83;27750;-64
2022/01/28 09:20:22;;;;;;;21.90;4.12;;;;;;;4.54;72.71;100343.70;2119875;83;29393;-63
2022/01/28 09:23:24;;;;;;;27.60;9.98;;;;;;;4.53;72.67;100331.35;2121696;83;31259;-62
2022/01/28 09:26:26;;;;;;;29.67;9.93;;;;;;;4.54;72.65;100340.16;2098257;83;32972;-64
2022/01/28 09:29:35;;;;;;;33.55;13.03;;;;;;;4.56;72.73;100353.80;2107294;83;30204;-64
2022/01/28 09:32:37;;;;;;;21.02;7.37;;;;;;;4.60;72.81;100353.30;2016488;87;27821;-62
2022/01/28 09:35:54;;;;;;;21.42;7.50;;;;;;;4.63;72.70;100361.63;2041386;86;28661;-63
2022/01/28 09:38:57;;;;;;;28.52;10.05;;;;;;;4.66;72.76;100366.87;2015837;88;31560;-63
2022/01/28 09:42:02;;;;;;;21.10;6.15;;;;;;;4.70;72.62;100373.38;2036456;87;33881;-62
2022/01/28 09:45:04;;;;;;;20.72;5.50;;;;;;;4.74;72.53;100385.25;2030246;86;29323;-63
2022/01/28 09:48:09;;;;;;;17.17;6.60;;;;;;;4.81;72.62;100389.48;2043984;87;27715;-63
2022/01/28 09:51:13;;;;;;;21.35;4.97;;;;;;;4.85;72.76;100400.45;2042983;87;27858;-64
2022/01/28 09:54:16;;;;;;;21.82;4.90;;;;;;;4.89;72.66;100394.17;2015664;88;31107;-64
2022/01/28 09:57:23;;;;;;;17.25;3.95;;;;;;;4.92;72.52;100402.50;2043681;87;33037;-63
2022/01/28 10:00:30;;;;;;;16.37;6.08;;;;;;;4.97;72.64;100404.59;2022247;87;29508;-64
2022/01/28 10:03:35;;;;;;;14.07;5.42;;;;;;;5.10;72.79;100413.99;2044052;87;27730;-64
2022/01/28 10:06:37;;;;;;;15.23;4.08;;;;;;;5.20;72.52;100425.73;2043744;87;28740;-65
2022/01/28 10:10:02;;;;;;;17.27;4.60;;;;;;;5.26;72.32;100432.19;2043384;87;32379;-63
2022/01/28 10:13:20;;;;;;;18.02;3.67;;;;;;;5.32;72.35;100437.36;2031198;87;36799;-62
2022/01/28 10:16:30;;;;;;;18.30;5.42;;;;;;;5.34;72.16;100442.19;2043869;86;30219;-63
2022/01/28 10:19:42;;;;;;;18.10;4.30;;;;;;;5.41;72.31;100441.56;2047420;86;27622;-63
2022/01/28 10:23:01;;;;;;;19.62;4.65;;;;;;;5.44;71.81;100447.66;1994136;87;29539;-63
2022/01/28 10:26:03;;;;;;;20.27;4.62;;;;;;;5.51;72.25;100456.81;2015694;88;32058;-63
2022/01/28 10:29:16;;;;;;;16.73;4.33;;;;;;;5.54;72.21;100470.02;2088585;83;33020;-62
2022/01/28 10:32:21;;;;;;;20.55;4.55;;;;;;;5.55;72.29;100469.97;2138306;83;30566;-61
2022/01/28 10:35:36;;;;;;;15.98;4.35;;;;;;;5.61;72.24;100484.87;2118698;83;27875;-62
2022/01/28 10:38:45;;;;;;;14.98;3.37;;;;;;;5.67;72.28;100487.39;2138310;83;29983;-61
2022/01/28 10:41:59;;;;;;;17.57;4.10;;;;;;;5.72;72.22;100491.25;2135015;83;31043;-61
2022/01/28 10:45:12;;;;;;;17.02;4.42;;;;;;;5.79;72.23;100508.80;2138790;81;32992;-63
2022/01/28 10:48:20;;;;;;;15.98;4.28;;;;;;;5.85;72.03;100507.75;2133998;81;29576;-62
2022/01/28 10:51:45;;;;;;;19.80;5.03;;;;;;;5.90;71.95;100501.83;2122159;83;27694;-63
2022/01/28 10:54:54;;;;;;;20.23;5.83;;;;;;;6.02;72.06;100515.30;2098540;84;27602;-62
2022/01/28 10:58:01;;;;;;;34.18;9.43;;;;;;;6.20;71.67;100520.11;2145779;82;31050;-63
2022/01/28 11:01:05;;;;;;;30.25;12.18;;;;;;;6.33;71.53;100509.11;2146200;82;33048;-62
2022/01/28 11:04:14;;;;;;;26.80;6.78;;;;;;;6.42;70.95;100511.97;2020698;86;34093;-63
2022/01/28 11:07:15;;;;;;;18.52;5.20;;;;;;;6.47;70.98;100526.02;2020776;87;27692;-62
2022/01/28 11:10:20;;;;;;;21.00;5.83;;;;;;;6.51;70.42;100516.56;2059831;85;28751;-62
2022/01/28 11:13:23;;;;;;;41.85;14.23;;;;;;;6.55;70.72;100531.97;2032322;87;31735;-62
2022/01/28 11:16:29;;;;;;;45.30;15.08;;;;;;;6.49;70.13;100504.23;1989520;88;33029;-62
2022/01/28 11:19:39;;;;;;;26.10;8.63;;;;;;;6.52;70.33;100520.97;1955214;90;29338;-62
2022/01/28 11:23:20;;;;;;;37.58;10.60;;;;;;;6.54;70.21;100526.23;1948179;89;27692;-62
2022/01/28 11:26:31;;;;;;;55.67;16.57;;;;;;;6.53;69.81;100525.37;1968530;90;28869;-61
2022/01/28 11:29:38;;;;;;;40.23;10.40;;;;;;;6.58;69.83;100535.03;1960291;90;31121;-64
2022/01/28 11:33:01;;;;;;;24.45;6.85;;;;;;;6.53;69.39;100536.02;1974799;89;33916;-62
2022/01/28 11:36:07;;;;;;;30.88;9.43;;;;;;;6.50;69.51;100545.42;1977269;89;27739;-63
2022/01/28 11:39:35;;;;;;;71.50;20.55;;;;;;;6.47;69.42;100553.96;1973626;89;28377;-63
2022/01/28 11:42:39;;;;;;;28.27;8.68;;;;;;;6.48;69.74;100537.94;1998204;89;27718;-62
2022/01/28 11:45:45;;;;;;;37.08;9.65;;;;;;;6.52;69.56;100546.25;1997244;89;30979;-63
2022/01/28 11:49:03;;;;;;;31.87;9.35;;;;;;;6.49;69.07;100543.67;1959381;90;34371;-62
2022/01/28 11:52:30;;;;;;;32.00;7.15;;;;;;;6.44;69.09;100544.29;1956067;90;29694;-61
2022/01/28 11:55:37;;;;;;;19.52;5.83;;;;;;;6.41;68.67;100555.02;1956761;90;28202;-64
2022/01/28 11:58:54;;;;;;;23.47;7.65;;;;;;;6.38;68.43;100553.30;1873150;94;27794;-62
2022/01/28 12:02:05;;;;;;;27.45;7.85;;;;;;;6.37;68.94;100556.87;1875018;94;31344;-61
2022/01/28 12:05:10;;;;;;;29.75;9.25;;;;;;;6.34;68.36;100554.76;1878586;94;32994;-62
2022/01/28 12:08:14;;;;;;;23.90;6.83;;;;;;;6.37;68.60;100563.52;1874899;93;29349;-62
2022/01/28 12:11:44;;;;;;;27.45;7.05;;;;;;;6.37;68.39;100566.18;1894032;90;28353;-61
2022/01/28 12:15:04;;;;;;;30.45;7.33;;;;;;;6.35;68.06;100581.78;1917834;91;28898;-62
2022/01/28 12:18:12;;;;;;;26.37;7.42;;;;;;;6.29;68.01;100580.64;1936452;91;31067;-62
2022/01/28 12:21:17;;;;;;;15.75;4.17;;;;;;;6.24;67.60;100595.38;1931191;91;34160;-64
2022/01/28 12:24:28;;;;;;;24.02;5.30;;;;;;;6.15;67.60;100595.16;2017863;87;29457;-63
2022/01/28 12:27:36;;;;;;;17.42;4.30;;;;;;;6.10;67.60;100611.72;2017442;87;27849;-61
2022/01/28 12:30:38;;;;;;;22.67;5.20;;;;;;;6.04;67.76;100607.41;2025362;87;28774;-63
2022/01/28 12:33:43;;;;;;;19.52;4.65;;;;;;;6.01;67.46;100605.30;2025857;87;31045;-61
2022/01/28 12:36:46;;;;;;;;;;;;;;;5.98;67.31;100611.55;2029542;87;32973;-62
2022/01/28 12:40:13;;;;;;;15.18;3.33;;;;;;;5.95;67.08;100608.09;2037746;86;29518;-61
2022/01/28 12:43:03;;;;;;;17.73;4.15;;;;;;;5.91;67.21;100618.80;2040858;86;27976;-62
2022/01/28 12:46:11;;;;;;;22.20;4.80;;;;;;;5.89;67.45;100625.95;2030390;87;29733;-62
2022/01/28 12:49:13;;;;;;;13.88;4.30;;;;;;;5.89;67.42;100629.94;2005766;88;31068;-61
2022/01/28 12:52:15;;;;;;;21.40;4.37;;;;;;;5.86;67.02;100618.04;2006215;87;34276;-62
2022/01/28 12:55:18;;;;;;;18.98;4.08;;;;;;;5.85;67.15;100625.59;2108495;81;29573;-63
2022/01/28 12:58:34;;;;;;;25.00;5.22;;;;;;;5.87;67.26;100629.09;2176806;81;27688;-62
2022/01/28 13:01:36;;;;;;;17.42;3.58;;;;;;;5.88;67.34;100633.50;2162379;81;29573;-64
2022/01/28 13:05:11;;;;;;;22.05;4.47;;;;;;;5.88;66.96;100629.52;2174253;81;32361;-63
2022/01/28 13:11:24;;;;;;;18.40;4.33;;;;;;;5.80;66.60;100646.09;2105243;84;29459;-63
2022/01/28 13:14:33;;;;;;;25.00;4.17;;;;;;;5.73;66.72;100657.34;2100538;84;27746;-62
2022/01/28 13:17:35;;;;;;;17.82;7.62;;;;;;;5.72;66.99;100671.53;2105352;84;28664;-61
2022/01/28 13:20:40;;;;;;;19.42;5.40;;;;;;;5.68;66.46;100669.88;2105367;84;31214;-62
2022/01/28 13:23:44;;;;;;;16.30;5.00;;;;;;;5.61;66.43;100685.54;2102231;84;33042;-62
2022/01/28 13:27:06;;;;;;;17.98;4.83;;;;;;;5.57;66.58;100686.51;2098935;84;29338;-61
2022/01/28 13:30:19;;;;;;;18.37;4.05;;;;;;;5.52;66.55;100686.62;2099397;84;27830;-61
2022/01/28 13:33:28;;;;;;;12.63;4.17;;;;;;;5.47;66.62;100701.34;2097111;84;29572;-61
2022/01/28 13:36:27;;;;;;;19.25;4.70;;;;;;;5.44;67.00;100709.38;2098190;84;31258;-63
2022/01/28 13:39:30;;;;;;;18.80;3.30;;;;;;;5.41;66.77;100713.89;2100408;83;34009;-61
2022/01/28 13:42:33;;;;;;;20.25;4.78;;;;;;;5.34;66.74;100711.83;2104687;84;30474;-61
2022/01/28 13:45:43;;;;;;;19.48;5.78;;;;;;;5.29;67.04;100705.72;2103574;84;27839;-61
2022/01/28 13:48:47;;;;;;;19.82;5.35;;;;;;;5.27;67.20;100713.73;2094044;84;28516;-60
2022/01/28 13:51:50;;;;;;;23.13;6.07;;;;;;;5.25;67.25;100719.97;2097006;84;31024;-61
2022/01/28 13:54:51;;;;;;;20.55;5.17;;;;;;;5.24;67.28;100728.41;2096812;84;34108;-60
2022/01/28 13:58:03;;;;;;;26.52;11.28;;;;;;;5.20;67.20;100728.04;2096568;84;30521;-61
2022/01/28 14:01:09;;;;;;;28.85;8.83;;;;;;;5.19;67.50;100738.70;2038152;84;27742;-61
2022/01/28 14:04:23;;;;;;;25.10;7.53;;;;;;;5.14;67.56;100734.80;2076383;84;28680;-60
2022/01/28 14:07:26;;;;;;;20.83;6.37;;;;;;;5.11;67.71;100743.70;2125068;83;31284;-63
2022/01/28 14:10:30;;;;;;;14.83;5.10;;;;;;;5.10;67.94;100752.58;2127483;83;35106;-60
2022/01/28 14:13:32;;;;;;;24.60;4.08;;;;;;;5.05;67.73;100745.14;2107120;83;29498;-61
2022/01/28 14:16:35;;;;;;;17.27;5.05;;;;;;;4.98;67.74;100752.36;2142905;83;28264;-61
2022/01/28 14:19:41;;;;;;;17.20;4.83;;;;;;;4.93;67.80;100750.27;2144067;83;28854;-62
2022/01/28 14:22:43;;;;;;;21.70;6.05;;;;;;;4.89;67.73;100759.61;2131891;83;31811;-60
2022/01/28 14:25:49;;;;;;;22.70;7.25;;;;;;;4.88;67.87;100776.48;2128359;83;34179;-61
2022/01/28 14:31:59;;;;;;;19.70;5.75;;;;;;;4.88;68.00;100773.83;2144943;83;27619;-60
2022/01/28 14:35:01;;;;;;;26.40;5.10;;;;;;;4.87;67.99;100772.93;2145251;82;28669;-60
2022/01/28 14:38:05;;;;;;;18.05;4.72;;;;;;;4.88;67.96;100781.32;2071450;84;32257;-61
2022/01/28 14:41:07;;;;;;;13.85;5.17;;;;;;;4.88;67.89;100792.41;2073318;84;32981;-60
2022/01/28 14:44:09;;;;;;;25.92;8.55;;;;;;;4.86;67.88;100806.58;2072615;85;30680;-60
2022/01/28 14:47:13;;;;;;;20.00;5.35;;;;;;;4.85;67.93;100823.41;2105546;83;28201;-61
2022/01/28 14:50:15;;;;;;;21.87;5.10;;;;;;;4.81;67.77;100832.33;2168937;82;28737;-61
2022/01/28 14:53:17;;;;;;;21.12;5.45;;;;;;;4.75;67.83;100836.86;2170092;82;31207;-60
2022/01/28 14:56:19;;;;;;;18.30;5.22;;;;;;;4.66;67.87;100841.88;2168043;82;34180;-60
2022/01/28 14:59:22;;;;;;;15.13;5.60;;;;;;;4.59;68.03;100858.34;2170363;81;30684;-60
2022/01/28 15:02:27;;;;;;;13.50;5.90;;;;;;;4.54;68.18;100850.90;2159678;82;27659;-61
2022/01/28 15:05:29;;;;;;;24.87;6.00;;;;;;;4.48;68.26;100855.86;2171326;81;28879;-62
2022/01/28 15:08:34;;;;;;;18.15;6.50;;;;;;;4.45;68.33;100865.65;2167724;82;31095;-62
2022/01/28 15:11:45;;;;;;;18.12;5.53;;;;;;;4.36;68.29;100865.33;2126256;82;33132;-62
2022/01/28 15:14:54;;;;;;;25.55;8.28;;;;;;;4.32;68.46;100868.45;2167880;81;27715;-62
2022/01/28 15:17:58;;;;;;;18.40;6.00;;;;;;;4.29;68.47;100877.81;2150258;82;27659;-62
2022/01/28 15:21:01;;;;;;;30.35;11.05;;;;;;;4.28;68.53;100871.19;2170493;82;28701;-62
2022/01/28 15:24:04;;;;;;;22.37;6.17;;;;;;;4.26;68.58;100880.50;2169626;82;31630;-64
2022/01/28 15:27:08;;;;;;;16.90;6.55;;;;;;;4.25;68.43;100874.77;2170821;82;32835;-61
2022/01/28 15:36:50;;;;;;;25.02;6.70;;;;;;;4.21;68.54;100879.67;2169602;81;27712;-61
2022/01/28 15:39:52;;;;;;;21.82;8.23;;;;;;;4.14;68.40;100888.17;2169887;82;30968;-62
2022/01/28 15:43:00;;;;;;;19.27;5.72;;;;;;;4.08;68.55;100898.41;2169074;82;33847;-62
2022/01/28 15:46:05;;;;;;;24.63;6.97;;;;;;;4.02;68.54;100892.32;2149213;82;29592;-62
2022/01/28 15:49:09;;;;;;;20.40;6.65;;;;;;;3.92;68.52;100905.67;2171419;82;27637;-62
2022/01/28 15:52:11;;;;;;;16.97;5.58;;;;;;;3.85;68.60;100920.34;2156915;82;29504;-61
2022/01/28 15:55:15;;;;;;;20.77;4.83;;;;;;;3.77;68.69;100924.41;2144126;81;31430;-63